首页
METAR-TAF:

METAR-TAF

机场 :

Ashland, 威斯康辛州, 美国

纬度: 46-32-59N, 经度: 090-55-06W, 海拔: 251米

当前天气观测

该预报发布于1小时和21分钟前的12:53 UTC
风速8节,风向西南
温度 -16°C
湿度 84%
气压 1031 hPa
能見度: 14.5公里
阴天层高于3400英尺

METAR: KASX 121253Z AUTO 23008KT 9SM OVC034 M16/M18 A3046 RMK AO2 SLP337 T11611183 $

时间: 08:14 (14:14 UTC)


TAF: 丢失

超过4000个机场的气象观测和天气预报(METAR&TAF报告)。

可查询的气象台以黄色和红色小点在地图上表示。

将鼠标移到小点上方,可查看气象台名称。

然后点击查看天气观测和预报。

如需切换地图:点击带黑十字的绿色按钮放大地图;点击带横线的绿色按钮缩小地图;或者点击绿色箭头查看邻近地区的地图。


METAR-TAF: